Terminal Aerodrome Forecast
Issued by NWS

Home | Current Version | Previous Version | Text Only | Print | Product List | Glossary On
Versions: 1 2 3 4 5 6 7 8 9 10 11 12 13 14 15
776
FTUS45 KRIW 080528
TAFJAC
TAF
KJAC 080528Z 0806/0906 35008KT P6SM BKN080
     FM081200 35005KT P6SM SCT025 BKN050
     FM081800 VRB05KT P6SM SCT050
     FM090100 36005KT P6SM FEW050
      AMD LTD TO CLD VIS AND WIND=

USA.gov is the U.S. government's official web portal to all federal, state and local government web resources and services.